Symphony Classica — JG4838 — position and weather

sailwx.info

Track history (hours):
 
Tides and Currents Weather Stations Pressure Air Temp Water Temp Dewpoint Dewpoint Depression Visibility Wind Speed Wind Dir Waves Ship Positions

Symphony Classica

Last reported at 2017-Oct-18 04:51 UTC. Time now 2017-Oct-19 23:47 UTC.
Position N 35°39' E 139°46'.

Length 70 m; draft 2.5 m.

Type: Passenger vessel. MMSI: 431000425.

Date/timePositionNaut miles runAvg speedWind from/ knotsBaromVisibWave heightAir tempDewpointWater temp
2017-Oct-18 04:51N 35°39' E 139°46'1 2.0
2017-Oct-18 04:30N 35°38' E 139°46'4 8.8
2017-Oct-18 04:00N 35°34' E 139°48'2 2.5
2017-Oct-18 03:17N 35°36' E 139°47'3 9.6
2017-Oct-18 03:00N 35°38' E 139°46'  
2017-Oct-15 12:14N 35°39' E 139°46'1 3.2
2017-Oct-15 12:00N 35°38' E 139°46'4 7.5
2017-Oct-15 11:29N 35°35' E 139°48'3 4.4
2017-Oct-15 10:53N 35°36' E 139°51'3 8.3
2017-Oct-15 10:28N 35°36' E 139°47'3 1.5
2017-Oct-15 08:25N 35°39' E 139°46'4 8.3
2017-Oct-15 07:59N 35°35' E 139°47'4 8.6
2017-Oct-15 07:30N 35°33' E 139°51'610.8
2017-Oct-15 06:58N 35°36' E 139°46'3 1.3
2017-Oct-15 04:53N 35°39' E 139°46'2 5.4
2017-Oct-15 04:30N 35°37' E 139°46'4 8.4
2017-Oct-15 04:00N 35°34' E 139°49'3 4.7
2017-Oct-15 03:26N 35°36' E 139°48'3 0.2
2017-Oct-14 12:15N 35°39' E 139°46'1 4.7
2017-Oct-14 11:59N 35°38' E 139°46'4 8.6
2017-Oct-14 11:31N 35°34' E 139°49'3 5.7
2017-Oct-14 11:00N 35°36' E 139°51'4 7.8
2017-Oct-14 10:30N 35°36' E 139°47'3 1.9
2017-Oct-14 09:05N 35°39' E 139°46'1 7.3
2017-Oct-14 09:00N 35°38' E 139°46'4 7.4
2017-Oct-14 08:30N 35°35' E 139°48'3 6.7
2017-Oct-14 08:00N 35°35' E 139°52'4 7.0
2017-Oct-14 07:25N 35°36' E 139°47'3 1.2
2017-Oct-14 04:45N 35°39' E 139°46'1 2.2
2017-Oct-14 04:30N 35°38' E 139°46'4 8.7
2017-Oct-14 04:00N 35°34' E 139°49'2 4.7
2017-Oct-14 03:29N 35°37' E 139°49'3 6.9
2017-Oct-14 03:00N 35°38' E 139°46'0 0.0
2017-Oct-13 12:15N 35°39' E 139°46'1 3.1
2017-Oct-13 12:00N 35°38' E 139°46'4 8.0
2017-Oct-13 11:30N 35°35' E 139°48'4 7.4
2017-Oct-13 11:00N 35°37' E 139°52'4 8.3
2017-Oct-13 10:30N 35°36' E 139°47'  
2017-Oct-10 06:36N 35°39' E 139°46'1 5.3
2017-Oct-10 06:29N 35°38' E 139°46'1 0.0
2017-Oct-08 12:25N 35°39' E 139°46'2 4.6
2017-Oct-08 11:59N 35°37' E 139°46'5 9.4
2017-Oct-08 11:30N 35°33' E 139°49'3 5.5
2017-Oct-08 10:55N 35°36' E 139°51'4 8.4
2017-Oct-08 10:29N 35°36' E 139°47'3 2.7
2017-Oct-08 09:14N 35°39' E 139°46'1 2.2
2017-Oct-08 09:00N 35°39' E 139°46'3 4.9
2017-Oct-08 08:29N 35°36' E 139°47'4 7.5
2017-Oct-08 08:00N 35°34' E 139°50'3 5.9
2017-Oct-08 07:27N 35°36' E 139°47'  
Track history (hours):
 
Tides and Currents Weather Stations Pressure Air Temp Water Temp Dewpoint Dewpoint Depression Visibility Wind Speed Wind Dir Waves Ship Positions

Symphony Classica

Last reported at 2017-Oct-18 04:51 UTC. Time now 2017-Oct-19 23:47 UTC.
Position N 35°39' E 139°46'.

Length 70 m; draft 2.5 m.

Type: Passenger vessel. MMSI: 431000425.

Date/timePositionNaut miles runAvg speedWind from/ knotsBaromVisibWave heightAir tempDewpointWater temp
2017-Oct-18 04:51N 35°39' E 139°46'1 2.0
2017-Oct-18 04:30N 35°38' E 139°46'4 8.8
2017-Oct-18 04:00N 35°34' E 139°48'2 2.5
2017-Oct-18 03:17N 35°36' E 139°47'3 9.6
2017-Oct-18 03:00N 35°38' E 139°46'  
2017-Oct-15 12:14N 35°39' E 139°46'1 3.2
2017-Oct-15 12:00N 35°38' E 139°46'4 7.5
2017-Oct-15 11:29N 35°35' E 139°48'3 4.4
2017-Oct-15 10:53N 35°36' E 139°51'3 8.3
2017-Oct-15 10:28N 35°36' E 139°47'3 1.5
2017-Oct-15 08:25N 35°39' E 139°46'4 8.3
2017-Oct-15 07:59N 35°35' E 139°47'4 8.6
2017-Oct-15 07:30N 35°33' E 139°51'610.8
2017-Oct-15 06:58N 35°36' E 139°46'3 1.3
2017-Oct-15 04:53N 35°39' E 139°46'2 5.4
2017-Oct-15 04:30N 35°37' E 139°46'4 8.4
2017-Oct-15 04:00N 35°34' E 139°49'3 4.7
2017-Oct-15 03:26N 35°36' E 139°48'3 0.2
2017-Oct-14 12:15N 35°39' E 139°46'1 4.7
2017-Oct-14 11:59N 35°38' E 139°46'4 8.6
2017-Oct-14 11:31N 35°34' E 139°49'3 5.7
2017-Oct-14 11:00N 35°36' E 139°51'4 7.8
2017-Oct-14 10:30N 35°36' E 139°47'3 1.9
2017-Oct-14 09:05N 35°39' E 139°46'1 7.3
2017-Oct-14 09:00N 35°38' E 139°46'4 7.4
2017-Oct-14 08:30N 35°35' E 139°48'3 6.7
2017-Oct-14 08:00N 35°35' E 139°52'4 7.0
2017-Oct-14 07:25N 35°36' E 139°47'3 1.2
2017-Oct-14 04:45N 35°39' E 139°46'1 2.2
2017-Oct-14 04:30N 35°38' E 139°46'4 8.7
2017-Oct-14 04:00N 35°34' E 139°49'2 4.7
2017-Oct-14 03:29N 35°37' E 139°49'3 6.9
2017-Oct-14 03:00N 35°38' E 139°46'0 0.0
2017-Oct-13 12:15N 35°39' E 139°46'1 3.1
2017-Oct-13 12:00N 35°38' E 139°46'4 8.0
2017-Oct-13 11:30N 35°35' E 139°48'4 7.4
2017-Oct-13 11:00N 35°37' E 139°52'4 8.3
2017-Oct-13 10:30N 35°36' E 139°47'  
2017-Oct-10 06:36N 35°39' E 139°46'1 5.3
2017-Oct-10 06:29N 35°38' E 139°46'1 0.0
2017-Oct-08 12:25N 35°39' E 139°46'2 4.6
2017-Oct-08 11:59N 35°37' E 139°46'5 9.4
2017-Oct-08 11:30N 35°33' E 139°49'3 5.5
2017-Oct-08 10:55N 35°36' E 139°51'4 8.4
2017-Oct-08 10:29N 35°36' E 139°47'3 2.7
2017-Oct-08 09:14N 35°39' E 139°46'1 2.2
2017-Oct-08 09:00N 35°39' E 139°46'3 4.9
2017-Oct-08 08:29N 35°36' E 139°47'4 7.5
2017-Oct-08 08:00N 35°34' E 139°50'3 5.9
2017-Oct-08 07:27N 35°36' E 139°47'  

Dump ship's entire track history